Time;durP1;ratioP1;P1;durP2;ratioP2;P2;SDS_P1;SDS_P2;PMS_P1;PMS_P2;Temp;Humidity;BMP_temperature;BMP_pressure;BME280_temperature;BME280_humidity;BME280_pressure;Samples;Min_cycle;Max_cycle;Signal;HPM_P1;HPM_P2
2021/11/30 00:01:08;;;;;;;63.05;22.65;;;1.70;99.90;;;;;;4939126;28;20031;-74
2021/11/30 00:03:35;;;;;;;60.85;20.52;;;1.70;99.90;;;;;;4956554;28;20053;-74
2021/11/30 00:06:00;;;;;;;66.35;22.85;;;1.70;99.90;;;;;;4948719;28;20023;-75
2021/11/30 00:08:31;;;;;;;62.50;22.67;;;1.80;99.90;;;;;;4960933;28;20046;-74
2021/11/30 00:10:58;;;;;;;62.92;22.50;;;1.70;99.90;;;;;;4950186;28;20356;-73
2021/11/30 00:13:26;;;;;;;63.25;23.70;;;1.80;99.90;;;;;;4943220;28;20612;-73
2021/11/30 00:15:53;;;;;;;54.35;22.10;;;1.80;99.90;;;;;;4957217;28;20039;-74
2021/11/30 00:18:18;;;;;;;58.30;23.45;;;1.80;99.80;;;;;;4962354;28;20035;-74
2021/11/30 00:20:44;;;;;;;60.30;21.55;;;1.90;99.80;;;;;;4953069;28;20033;-75
2021/11/30 00:23:11;;;;;;;53.55;21.63;;;1.90;99.80;;;;;;4941114;28;20022;-75
2021/11/30 00:25:37;;;;;;;61.17;22.85;;;1.90;99.80;;;;;;4956047;28;20034;-74
2021/11/30 00:28:05;;;;;;;60.65;21.67;;;1.90;99.70;;;;;;4960425;28;20110;-74
2021/11/30 00:30:32;;;;;;;59.70;21.67;;;2.00;99.70;;;;;;4941723;28;20031;-74
2021/11/30 00:32:59;;;;;;;52.55;19.85;;;2.00;99.70;;;;;;4952159;28;20469;-74
2021/11/30 00:35:24;;;;;;;62.30;23.13;;;2.10;99.60;;;;;;4960507;28;20489;-75
2021/11/30 00:37:50;;;;;;;60.42;22.15;;;2.00;99.60;;;;;;4954322;28;20031;-75
2021/11/30 00:40:16;;;;;;;48.30;20.92;;;2.10;99.60;;;;;;4953240;28;20099;-75
2021/11/30 00:42:42;;;;;;;46.72;18.77;;;2.10;99.60;;;;;;4961430;28;20378;-74
2021/11/30 00:45:09;;;;;;;52.60;18.95;;;2.20;99.40;;;;;;4944091;28;20113;-75
2021/11/30 00:47:38;;;;;;;47.40;21.45;;;2.30;99.20;;;;;;4959205;28;20666;-74
2021/11/30 00:50:06;;;;;;;48.08;19.50;;;2.30;99.10;;;;;;4954318;28;20027;-75
2021/11/30 00:52:33;;;;;;;36.47;18.35;;;2.40;99.00;;;;;;4956771;28;20042;-74
2021/11/30 00:54:58;;;;;;;47.72;19.73;;;2.40;98.90;;;;;;4940102;28;20027;-74
2021/11/30 00:57:24;;;;;;;46.28;20.17;;;2.40;98.80;;;;;;4959647;28;20370;-74
2021/11/30 00:59:52;;;;;;;41.40;19.65;;;2.40;98.80;;;;;;4963507;28;20516;-74
2021/11/30 01:02:18;;;;;;;46.75;19.70;;;2.40;98.80;;;;;;4959527;28;20468;-75
2021/11/30 01:04:43;;;;;;;37.25;17.83;;;2.50;98.80;;;;;;4961102;28;20131;-74
2021/11/30 01:07:11;;;;;;;44.92;18.42;;;2.50;98.70;;;;;;4960436;28;20095;-75
2021/11/30 01:09:38;;;;;;;37.20;17.00;;;2.50;98.70;;;;;;4951286;28;20083;-74
2021/11/30 01:12:04;;;;;;;34.63;16.08;;;2.50;98.70;;;;;;4952166;28;20031;-75
2021/11/30 01:14:29;;;;;;;39.28;20.15;;;2.50;98.60;;;;;;4941431;28;20470;-75
2021/11/30 01:16:55;;;;;;;33.60;17.85;;;2.50;98.60;;;;;;4962059;28;20027;-74
2021/11/30 01:19:20;;;;;;;35.72;17.85;;;2.50;98.60;;;;;;4956772;28;20363;-74
2021/11/30 01:21:46;;;;;;;38.42;19.27;;;2.40;98.70;;;;;;4952325;28;20082;-74
2021/11/30 01:24:12;;;;;;;36.28;18.75;;;2.50;98.70;;;;;;4943267;28;20030;-74
2021/11/30 01:26:38;;;;;;;36.22;19.73;;;2.50;98.70;;;;;;4951247;28;20097;-75
2021/11/30 01:29:04;;;;;;;38.00;20.30;;;2.40;98.70;;;;;;4952704;28;20109;-75
2021/11/30 01:31:30;;;;;;;37.22;19.80;;;2.40;98.80;;;;;;4946186;28;20088;-74
2021/11/30 01:33:56;;;;;;;37.47;17.10;;;2.40;98.70;;;;;;4962608;28;20105;-74
2021/11/30 01:36:22;;;;;;;33.78;17.52;;;2.40;98.70;;;;;;4938902;28;20078;-75
2021/11/30 01:38:49;;;;;;;34.65;18.20;;;2.40;98.70;;;;;;4956535;28;20562;-73
2021/11/30 01:41:15;;;;;;;33.75;17.67;;;2.50;98.80;;;;;;4954371;28;20300;-74
2021/11/30 01:43:44;;;;;;;30.63;15.73;;;2.50;98.80;;;;;;4960221;28;20019;-74
2021/11/30 01:51:29;;;;;;;30.08;16.75;;;2.60;99.00;;;;;;4957173;28;20038;-74
2021/11/30 01:53:56;;;;;;;26.80;15.50;;;2.50;99.00;;;;;;4944621;28;20433;-75
2021/11/30 01:56:23;;;;;;;26.83;15.45;;;2.50;99.00;;;;;;4954380;28;20426;-75
2021/11/30 01:58:49;;;;;;;23.60;14.43;;;2.60;99.00;;;;;;4961574;28;20511;-75
2021/11/30 02:01:15;;;;;;;22.63;13.25;;;2.60;99.00;;;;;;4954178;28;20229;-74
2021/11/30 02:03:41;;;;;;;18.63;12.02;;;2.60;98.80;;;;;;4945744;28;20075;-75
2021/11/30 02:06:07;;;;;;;20.10;13.00;;;2.50;98.80;;;;;;4955416;28;20086;-75
2021/11/30 02:08:33;;;;;;;22.73;13.25;;;2.50;98.90;;;;;;4959846;28;20038;-75
2021/11/30 02:10:58;;;;;;;22.73;12.68;;;2.50;99.00;;;;;;4950929;28;20054;-76
2021/11/30 02:13:25;;;;;;;20.98;12.55;;;2.50;99.10;;;;;;4954667;28;20035;-75
2021/11/30 02:15:54;;;;;;;21.75;12.00;;;2.50;99.10;;;;;;4957082;28;20108;-76
2021/11/30 02:18:24;;;;;;;17.52;11.30;;;2.50;99.10;;;;;;4938745;28;20034;-75
2021/11/30 02:20:57;;;;;;;20.67;12.45;;;2.60;98.90;;;;;;4955255;28;20027;-76
2021/11/30 02:26:23;;;;;;;20.67;11.80;;;2.60;98.70;;;;;;4945508;28;20027;-76
2021/11/30 02:28:50;;;;;;;17.27;10.07;;;2.60;98.70;;;;;;4938531;28;20041;-75
2021/11/30 02:31:19;;;;;;;17.65;10.68;;;2.60;98.70;;;;;;4951738;28;20114;-75
2021/11/30 02:33:46;;;;;;;14.98;9.93;;;2.60;98.70;;;;;;4959399;28;20026;-75
2021/11/30 02:36:26;;;;;;;15.60;9.88;;;2.60;98.70;;;;;;4953274;28;20286;-76
2021/11/30 02:38:53;;;;;;;22.42;11.48;;;2.60;98.80;;;;;;4940876;28;20137;-75
2021/11/30 02:41:19;;;;;;;17.05;10.63;;;2.60;98.80;;;;;;4954537;28;20098;-76
2021/11/30 02:43:45;;;;;;;20.58;11.57;;;2.60;98.80;;;;;;4936176;28;20031;-76
2021/11/30 02:46:10;;;;;;;15.52;10.05;;;2.60;98.80;;;;;;4959508;28;20019;-75
2021/11/30 02:48:36;;;;;;;15.40;10.45;;;2.60;98.70;;;;;;4945800;28;20069;-73
2021/11/30 02:51:06;;;;;;;16.58;10.90;;;2.60;98.70;;;;;;4955803;28;20042;-75
2021/11/30 02:53:32;;;;;;;19.05;11.95;;;2.60;98.70;;;;;;4959441;28;20118;-75
2021/11/30 02:55:57;;;;;;;13.02;8.63;;;2.70;98.60;;;;;;4949122;28;20126;-75
2021/11/30 02:58:22;;;;;;;16.63;11.05;;;2.60;98.50;;;;;;4952416;28;20058;-74
2021/11/30 03:00:48;;;;;;;13.63;7.90;;;2.70;98.60;;;;;;4940652;28;20019;-74
2021/11/30 03:03:14;;;;;;;15.98;10.07;;;2.70;98.40;;;;;;4934864;28;20111;-74
2021/11/30 03:05:40;;;;;;;10.48;7.65;;;2.70;98.40;;;;;;4956599;28;20303;-74
2021/11/30 03:08:05;;;;;;;14.48;9.30;;;2.70;98.30;;;;;;4942088;28;20296;-74
2021/11/30 03:10:31;;;;;;;16.98;8.90;;;2.70;98.40;;;;;;4940016;28;20035;-73
2021/11/30 03:12:57;;;;;;;14.48;9.55;;;2.70;98.50;;;;;;4952840;28;20561;-72
2021/11/30 03:15:24;;;;;;;11.60;8.75;;;2.70;98.40;;;;;;4953128;28;20499;-73
2021/11/30 03:17:50;;;;;;;14.10;8.43;;;2.70;98.50;;;;;;4956330;28;20125;-74
2021/11/30 03:20:17;;;;;;;13.90;8.73;;;2.70;98.60;;;;;;4958126;28;20023;-74
2021/11/30 03:22:43;;;;;;;12.00;7.70;;;2.70;98.60;;;;;;4957987;28;20035;-73
2021/11/30 03:25:10;;;;;;;13.45;8.82;;;2.60;98.60;;;;;;4948641;28;20398;-74
2021/11/30 03:27:36;;;;;;;11.35;7.47;;;2.60;98.60;;;;;;4948257;28;20035;-74
2021/11/30 03:30:07;;;;;;;14.15;8.32;;;2.60;98.70;;;;;;4957489;28;20106;-73
2021/11/30 03:35:03;;;;;;;9.70;6.30;;;2.60;98.70;;;;;;4949548;28;20183;-72
2021/11/30 03:37:28;;;;;;;11.93;7.80;;;2.60;98.80;;;;;;4957825;28;20035;-74
2021/11/30 03:39:54;;;;;;;10.13;7.63;;;2.60;98.80;;;;;;4959771;28;20045;-74
2021/11/30 03:42:20;;;;;;;13.93;7.15;;;2.60;98.80;;;;;;4947988;28;20031;-74
2021/11/30 03:44:46;;;;;;;12.15;8.65;;;2.60;98.90;;;;;;4961001;28;20030;-74
2021/11/30 03:47:11;;;;;;;13.70;9.20;;;2.60;99.00;;;;;;4957454;28;20416;-73
2021/11/30 03:49:37;;;;;;;16.27;6.57;;;2.60;99.10;;;;;;4958109;28;20174;-74
2021/11/30 03:52:03;;;;;;;12.60;8.70;;;2.60;99.20;;;;;;4940467;28;20459;-73
2021/11/30 03:54:29;;;;;;;9.30;7.50;;;2.60;99.20;;;;;;4958246;28;20078;-75
2021/11/30 03:56:56;;;;;;;15.15;8.48;;;2.50;99.20;;;;;;4959740;28;20407;-74
2021/11/30 03:59:22;;;;;;;14.05;7.80;;;2.60;99.20;;;;;;4951341;28;20061;-74
2021/11/30 04:01:48;;;;;;;13.13;7.75;;;2.60;99.30;;;;;;4956665;28;20110;-74
2021/11/30 04:04:22;;;;;;;11.32;7.53;;;2.60;99.30;;;;;;4960077;28;20094;-74
2021/11/30 04:06:50;;;;;;;11.07;8.18;;;2.50;99.40;;;;;;4964591;28;20099;-74
2021/11/30 04:09:16;;;;;;;11.23;7.80;;;2.50;99.40;;;;;;4961296;28;20413;-75
2021/11/30 04:11:42;;;;;;;10.00;6.65;;;2.50;99.50;;;;;;4942455;28;20030;-75
2021/11/30 04:14:08;;;;;;;9.10;7.10;;;2.50;99.60;;;;;;4940773;28;20114;-75
2021/11/30 04:16:34;;;;;;;11.68;7.68;;;2.50;99.70;;;;;;4963157;28;20132;-74
2021/11/30 04:19:00;;;;;;;12.30;8.57;;;2.50;99.60;;;;;;4952521;28;20034;-74
2021/11/30 04:21:26;;;;;;;8.85;5.95;;;2.50;99.60;;;;;;4944849;28;20486;-75
2021/11/30 04:23:53;;;;;;;9.20;7.28;;;2.60;99.60;;;;;;4957664;28;20039;-76
2021/11/30 04:26:19;;;;;;;9.73;7.70;;;2.60;99.70;;;;;;4952110;28;20023;-73
2021/11/30 04:28:45;;;;;;;11.15;7.72;;;2.60;99.70;;;;;;4940788;28;20138;-75
2021/11/30 04:31:11;;;;;;;8.27;5.07;;;2.60;99.70;;;;;;4958786;28;20479;-75
2021/11/30 04:33:36;;;;;;;11.00;8.07;;;2.70;99.60;;;;;;4943823;28;20037;-75
2021/11/30 04:36:05;;;;;;;12.40;8.20;;;2.70;99.70;;;;;;4951839;28;20589;-73
2021/11/30 04:38:30;;;;;;;10.88;7.88;;;2.60;99.70;;;;;;4957708;28;20028;-74
2021/11/30 04:40:56;;;;;;;9.43;6.03;;;2.70;99.70;;;;;;4950659;28;20515;-73
2021/11/30 04:43:21;;;;;;;12.50;7.85;;;2.70;99.80;;;;;;4955193;28;20031;-74
2021/11/30 04:45:59;;;;;;;8.32;5.30;;;2.80;99.70;;;;;;4959500;28;20031;-74
2021/11/30 04:48:25;;;;;;;11.77;7.00;;;2.80;99.70;;;;;;4943387;29;20530;-74
2021/11/30 04:50:54;;;;;;;10.80;6.82;;;2.80;99.70;;;;;;4955117;28;20043;-75
2021/11/30 04:53:21;;;;;;;9.73;6.38;;;2.80;99.80;;;;;;4950508;28;20022;-74
2021/11/30 04:55:49;;;;;;;12.13;7.07;;;2.80;99.80;;;;;;4945174;28;20023;-75
2021/11/30 04:58:15;;;;;;;12.25;5.72;;;2.80;99.80;;;;;;4945182;28;20022;-75
2021/11/30 05:00:40;;;;;;;9.27;6.22;;;2.90;99.70;;;;;;4953984;28;20027;-75
2021/11/30 05:03:06;;;;;;;9.27;6.05;;;2.90;99.70;;;;;;4937742;28;20026;-75
2021/11/30 05:05:32;;;;;;;9.63;6.70;;;2.90;99.80;;;;;;4964695;28;20054;-75
2021/11/30 05:07:58;;;;;;;9.70;5.72;;;2.90;99.80;;;;;;4952826;28;20193;-73
2021/11/30 05:10:23;;;;;;;8.57;6.10;;;3.00;99.70;;;;;;4955228;28;20042;-74
2021/11/30 05:12:49;;;;;;;7.65;4.75;;;3.00;99.70;;;;;;4958007;28;20026;-75
2021/11/30 05:15:15;;;;;;;8.20;5.97;;;3.00;99.70;;;;;;4957214;28;20150;-74
2021/11/30 05:17:41;;;;;;;9.10;5.32;;;3.00;99.70;;;;;;4956621;28;20111;-74
2021/11/30 05:20:07;;;;;;;14.80;7.90;;;3.00;99.70;;;;;;4952648;28;20055;-75
2021/11/30 05:22:33;;;;;;;9.25;6.22;;;3.00;99.70;;;;;;4937607;28;20045;-74
2021/11/30 05:25:00;;;;;;;11.00;6.95;;;3.00;99.70;;;;;;4955938;28;20031;-74
2021/11/30 05:27:26;;;;;;;9.35;6.07;;;3.00;99.80;;;;;;4950462;28;20174;-75
2021/11/30 05:29:52;;;;;;;11.02;7.07;;;3.00;99.80;;;;;;4952718;28;20100;-76
2021/11/30 05:32:19;;;;;;;10.25;6.28;;;3.10;99.70;;;;;;4955025;28;20023;-74
2021/11/30 05:34:45;;;;;;;10.93;7.78;;;3.10;99.70;;;;;;4954595;28;20185;-75
2021/11/30 05:37:10;;;;;;;9.98;6.50;;;3.10;99.70;;;;;;4957364;28;20048;-74
2021/11/30 05:39:36;;;;;;;9.05;6.18;;;3.10;99.70;;;;;;4957080;28;20070;-74
2021/11/30 05:42:02;;;;;;;9.82;6.90;;;3.20;99.70;;;;;;4956183;28;20023;-75
2021/11/30 05:44:28;;;;;;;13.25;7.63;;;3.10;99.70;;;;;;4955089;28;20114;-75
2021/11/30 05:46:53;;;;;;;12.57;7.82;;;3.10;99.70;;;;;;4939326;28;20027;-74
2021/11/30 05:49:19;;;;;;;10.32;7.22;;;3.20;99.80;;;;;;4939836;28;20027;-74
2021/11/30 05:51:45;;;;;;;11.82;7.75;;;3.20;99.80;;;;;;4957214;28;20576;-72
2021/11/30 05:54:10;;;;;;;12.27;7.78;;;3.20;99.80;;;;;;4951794;28;20032;-74
2021/11/30 05:56:39;;;;;;;11.10;7.70;;;3.20;99.90;;;;;;4937364;28;20027;-74
2021/11/30 05:59:04;;;;;;;12.82;8.20;;;3.20;99.80;;;;;;4936918;28;20075;-74
2021/11/30 06:01:33;;;;;;;11.38;8.13;;;3.30;99.80;;;;;;4957011;28;20093;-74
2021/11/30 06:04:00;;;;;;;12.00;8.73;;;3.30;99.90;;;;;;4953125;28;20101;-75
2021/11/30 06:06:29;;;;;;;13.65;9.07;;;3.30;99.80;;;;;;4942010;28;20026;-76
2021/11/30 06:08:55;;;;;;;14.15;9.70;;;3.40;99.90;;;;;;4948518;28;20543;-75
2021/11/30 06:11:20;;;;;;;15.20;9.80;;;3.40;99.90;;;;;;4935938;28;20039;-73
2021/11/30 06:13:47;;;;;;;11.50;8.30;;;3.50;99.90;;;;;;4953841;28;20060;-75
2021/11/30 06:16:12;;;;;;;15.82;11.80;;;3.40;99.90;;;;;;4935241;28;20027;-74
2021/11/30 06:18:38;;;;;;;16.85;10.82;;;3.50;99.90;;;;;;4954110;28;20038;-74
2021/11/30 06:21:03;;;;;;;18.88;12.57;;;3.50;99.90;;;;;;4954524;28;20098;-75
2021/11/30 06:23:29;;;;;;;18.48;12.38;;;3.60;99.90;;;;;;4955062;28;20031;-74
2021/11/30 06:25:54;;;;;;;17.63;12.50;;;3.60;99.90;;;;;;4953485;28;21025;-74
2021/11/30 06:28:20;;;;;;;16.00;11.65;;;3.60;99.90;;;;;;4959882;28;20280;-73
2021/11/30 06:30:45;;;;;;;15.90;10.52;;;3.70;99.90;;;;;;4957707;28;20593;-74
2021/11/30 06:33:11;;;;;;;19.98;13.75;;;3.70;99.90;;;;;;4963867;28;20520;-75
2021/11/30 06:35:37;;;;;;;18.05;12.77;;;3.80;99.90;;;;;;4947346;28;20214;-75
2021/11/30 06:38:03;;;;;;;18.65;13.55;;;3.80;99.90;;;;;;4963407;28;20086;-75
2021/11/30 06:40:29;;;;;;;15.05;11.02;;;3.90;99.90;;;;;;4952815;28;20085;-74
2021/11/30 06:42:55;;;;;;;21.13;13.70;;;3.90;99.90;;;;;;4955649;28;20035;-75
2021/11/30 06:45:20;;;;;;;21.40;13.30;;;4.00;99.90;;;;;;4958394;28;20072;-75
2021/11/30 06:47:46;;;;;;;22.13;14.50;;;4.00;99.90;;;;;;4947279;28;20062;-74
2021/11/30 06:50:12;;;;;;;20.08;13.45;;;4.10;99.90;;;;;;4944570;28;20029;-75
2021/11/30 06:52:39;;;;;;;22.30;14.32;;;4.10;99.90;;;;;;4958688;28;20383;-75
2021/11/30 06:55:09;;;;;;;18.35;12.07;;;4.20;99.90;;;;;;4948007;28;20039;-74
2021/11/30 06:57:35;;;;;;;18.80;13.65;;;4.20;99.90;;;;;;4959825;28;20035;-75
2021/11/30 07:00:04;;;;;;;17.25;12.07;;;4.30;99.90;;;;;;4962054;28;20528;-74
2021/11/30 07:02:31;;;;;;;19.63;13.35;;;4.40;99.90;;;;;;4966398;28;20156;-74
2021/11/30 07:05:01;;;;;;;16.02;11.40;;;4.50;99.90;;;;;;4960618;28;20106;-75
2021/11/30 07:07:34;;;;;;;17.20;10.90;;;4.60;99.90;;;;;;4945378;28;20070;-74
2021/11/30 07:10:09;;;;;;;18.80;12.48;;;4.60;99.90;;;;;;4947778;28;20373;-75
2021/11/30 07:15:01;;;;;;;19.90;13.38;;;4.60;99.90;;;;;;4957991;28;20278;-75
2021/11/30 07:17:26;;;;;;;22.67;13.05;;;4.70;99.90;;;;;;4963045;28;20498;-75
2021/11/30 07:19:52;;;;;;;21.80;13.40;;;4.80;99.90;;;;;;4958529;28;20458;-74
2021/11/30 07:22:17;;;;;;;18.58;11.70;;;4.90;99.90;;;;;;4953297;28;20026;-75
2021/11/30 07:24:44;;;;;;;21.17;12.38;;;4.90;99.90;;;;;;4958251;28;20022;-75
2021/11/30 07:27:10;;;;;;;20.58;13.88;;;4.90;99.90;;;;;;4937576;28;20099;-75
2021/11/30 07:29:35;;;;;;;20.65;13.07;;;5.00;99.90;;;;;;4960982;28;20132;-75
2021/11/30 07:32:01;;;;;;;23.73;11.55;;;5.00;99.90;;;;;;4946192;28;20026;-75
2021/11/30 07:34:27;;;;;;;17.38;10.75;;;5.10;99.90;;;;;;4957738;28;20182;-76
2021/11/30 07:36:53;;;;;;;23.13;11.15;;;5.20;99.90;;;;;;4947717;28;20038;-74
2021/11/30 07:39:18;;;;;;;22.17;11.25;;;5.20;99.90;;;;;;4947537;28;20019;-75
2021/11/30 07:41:44;;;;;;;15.75;9.02;;;5.20;99.90;;;;;;4958384;28;20039;-75
2021/11/30 07:44:09;;;;;;;16.75;9.00;;;5.30;99.90;;;;;;4944928;28;20026;-75
2021/11/30 07:46:37;;;;;;;12.13;7.00;;;5.40;99.90;;;;;;4965004;28;20377;-75
2021/11/30 07:49:02;;;;;;;16.20;9.13;;;5.50;99.90;;;;;;4943158;28;20088;-75
2021/11/30 07:51:28;;;;;;;14.07;7.88;;;5.50;99.90;;;;;;4955389;28;20031;-74
2021/11/30 07:53:56;;;;;;;15.50;8.02;;;5.50;99.90;;;;;;4956702;28;20522;-75
2021/11/30 07:56:22;;;;;;;14.13;7.22;;;5.50;99.90;;;;;;4963882;28;20110;-75
2021/11/30 07:58:48;;;;;;;13.27;6.38;;;5.50;99.90;;;;;;4956829;28;20214;-75
2021/11/30 08:01:15;;;;;;;13.57;6.57;;;5.60;99.90;;;;;;4962665;28;20192;-76
2021/11/30 08:03:40;;;;;;;17.08;6.45;;;5.70;99.90;;;;;;4954777;28;20699;-75
2021/11/30 08:06:06;;;;;;;22.00;6.15;;;5.70;99.90;;;;;;4962980;28;20046;-75
2021/11/30 08:08:32;;;;;;;13.68;6.13;;;5.70;99.90;;;;;;4950974;28;20142;-75
2021/11/30 08:10:58;;;;;;;9.18;5.82;;;5.70;99.90;;;;;;4939793;28;20122;-74
2021/11/30 08:13:23;;;;;;;14.48;6.05;;;5.60;99.90;;;;;;4964361;28;20520;-74
2021/11/30 08:15:49;;;;;;;13.82;6.22;;;5.70;99.90;;;;;;4945689;28;20386;-75
2021/11/30 08:18:15;;;;;;;17.52;5.32;;;5.80;99.90;;;;;;4953850;28;20352;-75
2021/11/30 08:20:40;;;;;;;17.42;4.55;;;5.80;99.90;;;;;;4958763;28;20030;-76
2021/11/30 08:23:07;;;;;;;22.25;5.20;;;5.80;99.90;;;;;;4952660;28;20038;-75
2021/11/30 08:25:33;;;;;;;16.67;4.20;;;5.80;99.90;;;;;;4949121;28;20027;-75
2021/11/30 08:27:58;;;;;;;9.25;3.28;;;5.80;99.80;;;;;;4948375;28;20084;-75
2021/11/30 08:30:24;;;;;;;16.38;4.40;;;5.90;99.80;;;;;;4956615;28;20129;-75
2021/11/30 08:32:49;;;;;;;14.98;3.75;;;5.90;99.70;;;;;;4958744;28;20056;-74
2021/11/30 08:35:15;;;;;;;22.30;4.38;;;6.00;99.60;;;;;;4944453;28;20623;-75
2021/11/30 08:37:40;;;;;;;16.75;2.92;;;5.90;99.50;;;;;;4958354;28;20523;-74
2021/11/30 08:40:10;;;;;;;17.50;2.95;;;6.00;99.30;;;;;;4955786;28;20027;-73
2021/11/30 08:42:36;;;;;;;11.82;2.75;;;6.10;99.00;;;;;;4960321;28;20023;-75
2021/11/30 08:45:05;;;;;;;18.58;2.58;;;6.10;98.60;;;;;;4961803;28;20074;-74
2021/11/30 08:47:31;;;;;;;16.55;2.72;;;6.10;98.40;;;;;;4959581;28;20073;-74
2021/11/30 08:49:57;;;;;;;11.95;2.88;;;6.10;98.20;;;;;;4952289;28;20066;-74
2021/11/30 08:52:28;;;;;;;16.30;2.88;;;6.10;98.10;;;;;;4961963;28;20464;-74
2021/11/30 08:54:56;;;;;;;17.80;2.60;;;6.10;97.70;;;;;;4964138;28;20049;-75
2021/11/30 08:57:25;;;;;;;18.83;2.22;;;6.10;97.70;;;;;;4957363;28;20099;-74
2021/11/30 08:59:52;;;;;;;21.75;2.47;;;6.10;97.70;;;;;;4956196;28;20058;-74
2021/11/30 09:02:18;;;;;;;19.17;2.47;;;6.20;97.50;;;;;;4943024;28;20031;-75
2021/11/30 09:04:44;;;;;;;16.23;2.05;;;6.10;97.50;;;;;;4953928;28;20436;-75
2021/11/30 09:07:10;;;;;;;16.15;2.72;;;6.10;97.60;;;;;;4943241;28;20031;-74
2021/11/30 09:09:35;;;;;;;14.73;2.17;;;6.10;97.20;;;;;;4947975;28;20022;-75
2021/11/30 09:12:01;;;;;;;10.55;1.73;;;6.20;95.80;;;;;;4955523;28;20019;-75
2021/11/30 09:14:27;;;;;;;18.67;2.70;;;6.30;94.70;;;;;;4960491;28;20102;-75
2021/11/30 09:16:55;;;;;;;19.17;2.88;;;6.40;93.90;;;;;;4942663;28;20033;-74
2021/11/30 09:19:21;;;;;;;21.20;3.35;;;6.20;94.60;;;;;;4950515;28;20447;-74
2021/11/30 09:21:48;;;;;;;23.02;3.38;;;6.30;94.10;;;;;;4941254;28;20019;-75
2021/11/30 09:24:15;;;;;;;21.90;2.45;;;6.20;94.40;;;;;;4962943;28;20514;-75
2021/11/30 09:26:41;;;;;;;16.95;2.55;;;6.20;94.60;;;;;;4952988;28;20026;-75
2021/11/30 09:29:08;;;;;;;11.48;2.42;;;6.30;93.80;;;;;;4937643;28;20127;-74
2021/11/30 09:31:34;;;;;;;14.10;2.88;;;6.20;94.00;;;;;;4960648;28;20515;-75
2021/11/30 09:34:02;;;;;;;15.70;2.83;;;6.20;93.90;;;;;;4956248;28;20255;-75
2021/11/30 09:36:29;;;;;;;21.05;3.10;;;6.20;94.60;;;;;;4944099;28;20038;-75
2021/11/30 09:38:54;;;;;;;18.52;3.08;;;6.20;94.20;;;;;;4944008;28;20031;-74
2021/11/30 09:41:22;;;;;;;22.80;3.05;;;6.10;94.70;;;;;;4959823;28;20026;-75
2021/11/30 09:43:48;;;;;;;21.23;3.47;;;6.10;95.10;;;;;;4941588;28;20024;-76
2021/11/30 09:46:13;;;;;;;19.27;2.90;;;6.10;95.00;;;;;;4957604;28;20023;-75
2021/11/30 09:48:39;;;;;;;16.60;3.15;;;6.10;95.60;;;;;;4960973;28;20022;-75
2021/11/30 09:51:05;;;;;;;22.42;2.60;;;6.00;96.10;;;;;;4953966;28;20045;-76
2021/11/30 09:53:31;;;;;;;19.40;3.25;;;6.00;95.60;;;;;;4963676;28;20214;-76
2021/11/30 09:55:57;;;;;;;24.92;2.78;;;6.00;95.40;;;;;;4958485;28;20490;-75
2021/11/30 09:58:24;;;;;;;22.13;2.70;;;6.00;95.50;;;;;;4944514;28;20027;-75
2021/11/30 10:00:53;;;;;;;27.95;3.00;;;6.10;95.50;;;;;;4958601;28;20050;-75
2021/11/30 10:03:21;;;;;;;23.73;3.53;;;6.00;95.90;;;;;;4931516;28;20034;-75
2021/11/30 10:05:46;;;;;;;20.10;2.70;;;5.90;96.60;;;;;;4955704;28;20023;-76
2021/11/30 10:08:30;;;;;;;18.67;3.25;;;5.80;97.00;;;;;;4962887;28;20142;-75
2021/11/30 10:10:57;;;;;;;15.30;2.60;;;5.90;96.60;;;;;;4943974;28;20823;-75
2021/11/30 10:13:23;;;;;;;13.90;2.33;;;6.10;94.90;;;;;;4954217;28;20062;-74
2021/11/30 10:15:57;;;;;;;17.15;2.00;;;6.10;95.00;;;;;;4962791;28;20041;-76
2021/11/30 10:18:24;;;;;;;15.23;1.95;;;6.10;94.20;;;;;;4955422;28;20034;-76
2021/11/30 10:20:54;;;;;;;7.97;1.65;;;6.10;94.30;;;;;;4959161;28;20105;-73
2021/11/30 10:23:22;;;;;;;13.63;2.30;;;6.00;94.40;;;;;;4956467;28;20019;-75
2021/11/30 10:25:49;;;;;;;7.75;1.63;;;6.10;94.40;;;;;;4947800;28;20022;-76
2021/11/30 10:28:18;;;;;;;11.40;2.30;;;6.10;93.30;;;;;;4957177;28;20031;-76
2021/11/30 10:30:50;;;;;;;13.98;2.28;;;6.20;93.30;;;;;;4965137;28;20057;-76
2021/11/30 10:33:27;;;;;;;8.38;1.77;;;6.20;92.50;;;;;;4957563;28;20038;-75
2021/11/30 10:35:55;;;;;;;12.48;2.22;;;6.10;93.40;;;;;;4955609;28;20086;-74
2021/11/30 10:38:32;;;;;;;9.68;1.70;;;6.20;92.70;;;;;;4959957;28;20034;-75
2021/11/30 10:41:13;;;;;;;15.40;1.85;;;6.20;92.60;;;;;;4936075;28;20083;-74
2021/11/30 10:43:57;;;;;;;9.63;1.77;;;6.30;92.40;;;;;;4939434;29;20437;-76
2021/11/30 10:46:31;;;;;;;10.80;1.85;;;6.30;93.00;;;;;;4952006;28;20019;-76
2021/11/30 10:48:57;;;;;;;8.95;1.88;;;6.30;93.10;;;;;;4961952;28;20073;-76
2021/11/30 10:51:26;;;;;;;13.77;1.67;;;6.30;93.80;;;;;;4962016;28;20038;-72
2021/11/30 10:53:56;;;;;;;7.80;1.45;;;6.20;94.10;;;;;;4955245;28;20268;-75
2021/11/30 10:56:21;;;;;;;18.38;2.42;;;6.30;93.40;;;;;;4941612;28;20030;-73
2021/11/30 10:58:52;;;;;;;19.73;2.60;;;6.20;93.70;;;;;;4955183;28;20396;-76
2021/11/30 11:01:20;;;;;;;12.43;2.05;;;6.10;93.80;;;;;;4947395;28;20031;-76
2021/11/30 11:04:01;;;;;;;13.25;2.30;;;6.10;94.10;;;;;;4959934;28;20035;-75
2021/11/30 11:06:30;;;;;;;16.50;2.40;;;6.00;94.80;;;;;;4960331;28;20094;-75
2021/11/30 11:09:01;;;;;;;15.18;2.45;;;5.90;94.80;;;;;;4956640;28;20026;-75
2021/11/30 11:12:01;;;;;;;17.77;2.63;;;5.90;94.40;;;;;;4962165;28;20171;-73
2021/11/30 11:14:28;;;;;;;15.10;2.22;;;5.90;93.70;;;;;;4942117;28;20089;-75
2021/11/30 11:17:01;;;;;;;15.85;2.20;;;5.90;93.70;;;;;;4949384;28;20166;-75
2021/11/30 11:19:42;;;;;;;11.27;2.30;;;6.00;92.50;;;;;;4944371;28;20187;-75
2021/11/30 11:22:18;;;;;;;14.45;2.55;;;6.10;92.50;;;;;;4939282;28;20038;-76
2021/11/30 11:24:50;;;;;;;13.98;2.78;;;6.00;93.20;;;;;;4958913;28;20546;-76
2021/11/30 11:27:29;;;;;;;13.02;2.40;;;6.10;93.00;;;;;;4952499;28;20023;-77
2021/11/30 11:29:55;;;;;;;17.90;2.92;;;6.10;93.00;;;;;;4956607;28;20042;-78
2021/11/30 11:32:21;;;;;;;12.55;2.17;;;6.10;93.20;;;;;;4947271;28;20203;-75
2021/11/30 11:34:47;;;;;;;13.35;2.40;;;6.10;90.70;;;;;;4944248;28;20320;-75
2021/11/30 11:37:12;;;;;;;8.95;2.72;;;6.10;90.70;;;;;;4961899;28;20062;-77
2021/11/30 11:39:39;;;;;;;13.65;2.83;;;6.10;91.40;;;;;;4954054;28;20126;-75
2021/11/30 11:42:07;;;;;;;15.07;2.40;;;6.10;90.30;;;;;;4965335;28;20034;-76
2021/11/30 11:44:33;;;;;;;31.60;2.90;;;6.10;90.90;;;;;;4965798;28;20510;-75
2021/11/30 11:47:02;;;;;;;21.75;3.10;;;6.10;90.80;;;;;;4947852;28;20483;-76
2021/11/30 11:49:32;;;;;;;16.42;3.00;;;6.20;91.10;;;;;;4963293;28;20023;-75
2021/11/30 11:51:58;;;;;;;14.35;2.67;;;6.20;91.30;;;;;;4940733;28;20352;-76
2021/11/30 11:54:32;;;;;;;13.18;2.40;;;6.20;91.00;;;;;;4944132;28;20031;-75
2021/11/30 11:57:08;;;;;;;21.42;3.65;;;6.20;91.10;;;;;;4946456;28;20030;-76
2021/11/30 11:59:41;;;;;;;20.80;3.80;;;6.20;91.00;;;;;;4966446;28;20050;-74
2021/11/30 12:02:25;;;;;;;19.52;3.60;;;6.20;91.10;;;;;;4937837;28;20027;-75
2021/11/30 12:04:55;;;;;;;17.17;2.58;;;6.20;90.70;;;;;;4959481;28;20026;-76
2021/11/30 12:07:24;;;;;;;18.88;3.53;;;6.20;89.40;;;;;;4965088;28;20050;-76
2021/11/30 12:10:17;;;;;;;12.00;2.72;;;6.10;88.10;;;;;;4943967;28;20050;-76
2021/11/30 12:13:01;;;;;;;13.00;2.38;;;6.20;87.90;;;;;;4960993;28;20015;-77
2021/11/30 12:15:54;;;;;;;15.43;3.35;;;6.30;87.30;;;;;;4955249;28;20109;-76
2021/11/30 12:18:49;;;;;;;21.30;3.83;;;6.20;87.70;;;;;;4946943;28;20101;-76
2021/11/30 12:21:25;;;;;;;11.88;2.47;;;6.30;87.00;;;;;;4953607;28;20483;-75
2021/11/30 12:23:54;;;;;;;14.60;2.40;;;6.40;85.60;;;;;;4963010;28;20034;-76
2021/11/30 12:26:30;;;;;;;15.75;2.92;;;6.40;84.80;;;;;;4962850;28;20031;-76
2021/11/30 12:28:56;;;;;;;16.30;3.85;;;6.40;84.90;;;;;;4947090;28;20034;-75
2021/11/30 12:31:37;;;;;;;20.05;5.40;;;6.40;84.50;;;;;;4940205;29;20027;-77
2021/11/30 12:34:04;;;;;;;15.18;3.17;;;6.40;84.60;;;;;;4940463;28;20033;-76
2021/11/30 12:36:33;;;;;;;12.27;2.78;;;6.50;83.40;;;;;;4956413;28;20047;-77
2021/11/30 12:39:01;;;;;;;18.80;2.85;;;6.60;84.80;;;;;;4958041;28;20121;-75
2021/11/30 12:41:39;;;;;;;19.60;4.43;;;6.70;84.70;;;;;;4960686;28;20371;-77
2021/11/30 12:44:22;;;;;;;12.07;2.22;;;6.70;83.00;;;;;;4962826;28;20027;-77
2021/11/30 12:46:56;;;;;;;20.85;2.78;;;6.70;82.10;;;;;;4945285;28;20130;-77
2021/11/30 12:49:25;;;;;;;16.00;2.53;;;6.60;82.70;;;;;;4943521;28;20058;-75
2021/11/30 12:54:24;;;;;;;15.15;2.50;;;6.50;83.00;;;;;;5061511;27;1870564;-68
2021/11/30 12:56:53;;;;;;;14.48;2.83;;;6.60;82.50;;;;;;5102607;28;20096;-67
2021/11/30 12:59:42;;;;;;;14.02;3.05;;;6.60;82.80;;;;;;5105107;28;20035;-67
2021/11/30 13:04:55;;;;;;;14.77;2.15;;;6.50;81.90;;;;;;5091884;27;20948;-68
2021/11/30 13:07:25;;;;;;;11.40;2.35;;;6.70;81.30;;;;;;5078407;28;20078;-67